Data for 10/04/2005

Time Sea-Level Adjusted Pressure Absolute Pressure Temperature Relative Humidity Dew Point   
(mb) (inHg) (mb) (inHg) (C) (F) (%) (C) (F)
00:05 1018 30.06 847 25.01 2.7 36.9 95 2 35.7
00:10 1018 30.06 847 25.01 2.8 37 95 2.1 35.7
00:15 1018 30.06 847 25.01 2.7 36.9 94 1.9 35.4
00:20 1018 30.06 847 25.01 2.8 37 94 1.8 35.3
00:25 1018 30.06 847 25.01 2.8 37.1 93 1.8 35.2
00:30 1018 30.06 847 25.01 2.8 37.1 93 1.7 35.1
00:35 1018 30.06 847 25.01 2.7 36.9 92 1.6 34.9
00:40 1017 30.03 847 25.01 2.7 36.9 92 1.5 34.7
00:45 1017 30.03 847 25.01 2.7 36.9 91 1.4 34.6
00:50 1017 30.03 847 25.01 2.8 37 90 1.2 34.2
00:55 1017 30.03 847 25.01 2.8 37.1 89 1.3 34.3
01:00 1017 30.03 847 25.01 2.9 37.1 89 1.2 34.2
01:05 1018 30.06 847 25.01 2.9 37.2 88 1.1 34
01:10 1018 30.06 847 25.01 2.9 37.2 89 1.2 34.2
01:15 1018 30.06 847 25.01 2.9 37.3 88 1.1 34
01:20 1018 30.06 847 25.01 3 37.4 88 1.2 34.1
01:25 1018 30.06 847 25.01 3 37.5 87 1 33.8
01:30 1018 30.06 847 25.01 3.1 37.5 87 1.1 34
01:35 1018 30.06 847 25.01 3 37.4 87 1 33.9
01:40 1018 30.06 847 25.01 3 37.4 86 1 33.7
01:45 1018 30.06 847 25.01 2.9 37.3 87 1 33.7
01:50 1018 30.06 847 25.01 2.9 37.1 87 0.9 33.6
01:55 1018 30.06 847 25.01 2.8 37.1 86 0.8 33.4
02:00 1018 30.06 847 25.01 2.8 37.1 87 0.9 33.7
02:05 1018 30.06 847 25.01 2.8 37 89 1.1 33.9
02:10 1018 30.06 847 25.01 2.7 36.8 90 1.2 34.1
02:15 1018 30.06 847 25.01 2.6 36.6 90 1.2 34.1
02:20 1018 30.06 847 25.01 2.5 36.6 90 1.1 34.1
02:25 1018 30.06 847 25.01 2.5 36.5 90 1.1 33.9
02:30 1018 30.06 847 25.01 2.5 36.5 90 1 33.8
02:35 1018 30.06 847 25.01 2.6 36.6 90 1 33.9
02:40 1018 30.06 847 25.01 2.6 36.6 90 1 33.9
02:45 1018 30.06 847 25.01 2.6 36.6 91 1.2 34.2
02:50 1018 30.06 847 25.01 2.4 36.4 91 1.1 34
02:55 1018 30.06 847 25.01 2.3 36.2 91 1.1 33.9
03:00 1018 30.06 847 25.01 2.3 36.1 91 1 33.8
03:05 1018 30.06 847 25.01 2.2 36 92 1 33.8
03:10 1018 30.06 847 25.01 2.2 36 92 1 33.8
03:15 1018 30.06 847 25.01 2.1 35.9 92 1 33.7
03:20 1018 30.06 847 25.01 2.1 35.8 92 0.9 33.7
03:25 1018 30.06 847 25.01 2.1 35.9 92 1 33.8
03:30 1018 30.06 847 25.01 2.1 35.8 92 1 33.8
03:35 1018 30.06 847 25.01 2.1 35.8 92 1 33.7
03:40 1017 30.03 847 25.01 2.1 35.8 93 1 33.8
03:45 1017 30.03 847 25.01 2.1 35.7 93 1 33.8
03:50 1017 30.03 847 25.01 2.1 35.8 92 1 33.7
03:55 1017 30.03 847 25.01 2.1 35.9 92 0.9 33.7
04:00 1017 30.03 846 24.98 2.3 36.1 91 0.9 33.7
04:05 1017 30.03 846 24.98 2.2 36 91 0.9 33.5
04:10 1017 30.03 847 25.01 2.3 36.1 91 0.9 33.6
04:15 1018 30.06 847 25.01 2.3 36.1 90 0.8 33.5
04:20 1018 30.06 847 25.01 2.3 36.2 90 0.8 33.5
04:25 1018 30.06 847 25.01 2.3 36.2 90 0.9 33.6
04:30 1018 30.06 847 25.01 2.4 36.3 91 1 33.8
04:35 1018 30.06 847 25.01 2.3 36.2 91 1 33.9
04:40 1018 30.06 847 25.01 2.4 36.2 91 1.1 33.9
04:45 1018 30.06 847 25.01 2.3 36.2 91 1.1 34
04:50 1018 30.06 847 25.01 2.4 36.2 91 1.1 33.9
04:55 1018 30.06 847 25.01 2.3 36.1 91 1 33.9
05:00 1018 30.06 847 25.01 2.3 36.2 92 1.1 34
05:05 1018 30.06 847 25.01 2.3 36.1 92 1.1 34
05:10 1018 30.06 847 25.01 2.3 36.2 92 1.2 34.1
05:15 1018 30.06 847 25.01 2.3 36.2 92 1.2 34.2
05:20 1018 30.06 848 25.04 2.3 36.2 92 1.1 34
05:25 1018 30.06 848 25.04 2.4 36.3 91 1 33.9
05:30 1018 30.06 848 25.04 2.4 36.4 90 1 33.8
05:35 1018 30.06 848 25.04 2.5 36.4 90 0.9 33.7
05:40 1019 30.09 848 25.04 2.5 36.5 90 1 33.8
05:45 1019 30.09 848 25.04 2.5 36.5 89 0.8 33.5
05:50 1019 30.09 848 25.04 2.6 36.6 88 0.8 33.5
05:55 1019 30.09 848 25.04 2.5 36.6 89 0.8 33.5
06:00 1018 30.06 848 25.04 2.6 36.6 88 0.8 33.5
06:05 1018 30.06 848 25.04 2.5 36.6 88 0.8 33.4
06:10 1018 30.06 848 25.04 2.5 36.5 88 0.8 33.4
06:15 1018 30.06 848 25.04 2.6 36.6 89 0.8 33.5
06:20 1018 30.06 848 25.04 2.5 36.6 89 0.9 33.6
06:25 1018 30.06 848 25.04 2.5 36.5 89 0.9 33.6
06:30 1019 30.09 848 25.04 2.5 36.4 89 0.8 33.4
06:35 1019 30.09 848 25.04 2.5 36.5 89 0.9 33.7
06:40 1019 30.09 848 25.04 2.5 36.5 89 0.9 33.6
06:45 1019 30.09 848 25.04 2.5 36.5 89 0.9 33.7
06:50 1019 30.09 848 25.04 2.5 36.4 89 0.9 33.6
06:55 1019 30.09 848 25.04 2.5 36.5 89 0.9 33.6
07:00 1019 30.09 848 25.04 2.5 36.6 89 0.9 33.7
07:05 1019 30.09 848 25.04 2.5 36.5 90 1 33.8
07:10 1019 30.09 848 25.04 2.5 36.5 90 0.9 33.7
07:15 1019 30.09 848 25.04 2.5 36.5 89 0.9 33.7
07:20 1019 30.09 848 25.04 2.5 36.5 90 1 33.7
07:25 1019 30.09 848 25.04 2.5 36.5 90 1 33.8
07:30 1019 30.09 848 25.04 2.5 36.4 90 0.9 33.7
07:35 1019 30.09 848 25.04 2.4 36.4 90 1 33.7
07:40 1019 30.09 848 25.04 2.4 36.4 90 1 33.8
07:45 1019 30.09 848 25.04 2.4 36.4 90 1 33.7
07:50 1019 30.09 848 25.04 2.5 36.4 90 1 33.7
07:55 1019 30.09 848 25.04 2.5 36.5 89 0.9 33.6
08:00 1019 30.09 848 25.04 2.6 36.6 89 0.9 33.6
08:05 1019 30.09 848 25.04 2.5 36.6 88 0.8 33.4
08:10 1019 30.09 848 25.04 2.6 36.7 88 0.8 33.5
08:15 1019 30.09 848 25.04 2.6 36.7 87 0.7 33.3
08:20 1019 30.09 848 25.04 2.7 36.9 88 0.9 33.6
08:25 1019 30.09 848 25.04 2.8 37 87 0.8 33.5
08:30 1019 30.09 848 25.04 2.8 37 87 0.9 33.5
08:35 1019 30.09 848 25.04 2.8 37 87 0.9 33.6
08:40 1019 30.09 848 25.04 2.9 37.2 88 1.1 33.9
08:45 1019 30.09 848 25.04 2.9 37.2 87 0.9 33.6
08:50 1019 30.09 848 25.04 2.8 37.1 87 0.9 33.7
08:55 1019 30.09 848 25.04 2.9 37.2 87 0.9 33.7
09:00 1019 30.09 848 25.04 2.9 37.2 87 1 33.7
09:05 1019 30.09 848 25.04 2.9 37.2 87 1 33.8
09:10 1019 30.09 848 25.04 3 37.3 87 1.1 33.9
09:15 1019 30.09 848 25.04 3 37.4 88 1.2 34.1
09:20 1019 30.09 848 25.04 3.1 37.5 88 1.3 34.3
09:25 1019 30.09 848 25.04 3.1 37.6 87 1.2 34.1
09:30 1019 30.09 848 25.04 3.2 37.7 87 1.3 34.3
09:35 1019 30.09 848 25.04 3.2 37.8 87 1.2 34.2
09:40 1019 30.09 848 25.04 3.2 37.8 87 1.3 34.3
09:45 1019 30.09 848 25.04 3.2 37.8 86 1.2 34.2
09:50 1019 30.09 848 25.04 3.4 38 87 1.4 34.5
09:55 1019 30.09 848 25.04 3.3 38 87 1.3 34.3
10:00 1019 30.09 848 25.04 3.3 37.9 85 1.1 33.9
10:05 1019 30.09 848 25.04 3.2 37.8 87 1.3 34.3
10:10 1019 30.09 848 25.04 3.4 38.2 86 1.3 34.4
10:15 1019 30.09 848 25.04 3.5 38.4 86 1.4 34.5
10:20 1019 30.09 848 25.04 3.6 38.5 85 1.3 34.4
10:25 1019 30.09 848 25.04 3.6 38.5 86 1.4 34.6
10:30 1019 30.09 848 25.04 3.5 38.4 86 1.4 34.6
10:35 1019 30.09 848 25.04 3.5 38.3 86 1.4 34.6
10:40 1019 30.09 848 25.04 3.3 38 89 1.6 34.9
10:45 1019 30.09 848 25.04 3.4 38.1 88 1.6 34.9
10:50 1019 30.09 848 25.04 3.4 38.1 90 2 35.5
10:55 1019 30.09 848 25.04 3.5 38.4 89 1.9 35.5
11:00 1019 30.09 848 25.04 3.5 38.3 88 1.7 35.1
11:05 1019 30.09 848 25.04 3.3 38 92 2.1 35.8
11:10 1019 30.09 848 25.04 2.9 37.1 94 1.9 35.4
11:15 1019 30.09 848 25.04 2.7 36.8 95 2 35.6
11:20 1019 30.09 849 25.07 2.8 37.1 94 1.9 35.5
11:25 1019 30.09 849 25.07 2.8 37.1 95 2 35.7
11:30 1019 30.09 849 25.07 2.7 36.9 95 1.9 35.5
11:35 1019 30.09 849 25.07 2.6 36.6 94 1.7 35.1
11:40 1020 30.12 849 25.07 2.2 35.9 95 1.4 34.6
11:45 1020 30.12 849 25.07 2 35.5 95 1.3 34.3
11:50 1020 30.12 849 25.07 1.7 35.1 95 1.1 33.9
11:55 1020 30.12 849 25.07 1.7 35.1 95 1 33.9
12:00 1020 30.12 849 25.07 1.7 35 96 1.1 33.9
12:05 1019 30.09 849 25.07 1.5 34.6 96 0.9 33.6
12:10 1019 30.09 849 25.07 1.1 34 97 0.7 33.3
12:15 1020 30.12 849 25.07 1.2 34.1 98 0.9 33.6
12:20 1019 30.09 849 25.07 1.2 34.1 98 0.9 33.6
12:25 1019 30.09 848 25.04 1.2 34.1 98 0.9 33.6
12:30 1019 30.09 848 25.04 1.4 34.5 98 1.1 34
12:35 1019 30.09 849 25.07 1.5 34.8 97 1.1 34.1
12:40 1019 30.09 849 25.07 1.6 34.9 96 1 33.9
12:45 1019 30.09 849 25.07 1.6 34.9 96 1.1 33.9
12:50 1019 30.09 849 25.07 1.8 35.3 95 1.1 33.9
12:55 1019 30.09 848 25.04 1.9 35.4 95 1.1 34
13:00 1019 30.09 848 25.04 2.1 35.8 94 1.3 34.3
13:05 1019 30.09 848 25.04 2.3 36.1 94 1.5 34.6
13:10 1019 30.09 848 25.04 2.4 36.4 93 1.4 34.5
13:15 1019 30.09 849 25.07 2.5 36.6 92 1.3 34.3
13:20 1019 30.09 849 25.07 2.4 36.3 92 1.2 34.1
13:25 1020 30.12 849 25.07 2.2 36 92 1.1 34
13:30 1020 30.12 849 25.07 2.1 35.8 94 1.2 34.1
13:35 1020 30.12 849 25.07 2.1 35.7 93 1.1 33.9
13:40 1019 30.09 849 25.07 1.8 35.3 94 0.9 33.7
13:45 1020 30.12 849 25.07 1.6 34.9 94 0.8 33.4
13:50 1020 30.12 849 25.07 1.3 34.4 96 0.7 33.2
13:55 1019 30.09 849 25.07 1.5 34.6 96 0.9 33.7
14:00 1019 30.09 849 25.07 1.6 34.9 96 1 33.8
14:05 1020 30.12 849 25.07 1.6 34.9 96 1 33.8
14:10 1019 30.09 849 25.07 1.7 35 97 1.2 34.1
14:15 1019 30.09 849 25.07 1.4 34.5 96 0.9 33.5
14:20 1019 30.09 848 25.04 1.4 34.4 96 0.8 33.4
14:25 1019 30.09 849 25.07 1.2 34.2 96 0.7 33.2
14:30 1020 30.12 849 25.07 1.1 34 97 0.7 33.3
14:35 1019 30.09 849 25.07 1 33.9 97 0.6 33.2
14:40 1019 30.09 849 25.07 0.9 33.6 97 0.5 33
14:45 1019 30.09 848 25.04 0.9 33.6 98 0.6 33.1
14:50 1019 30.09 849 25.07 0.9 33.6 98 0.6 33.1
14:55 1020 30.12 849 25.07 1 33.9 98 0.7 33.3
15:00 1020 30.12 849 25.07 1.1 34.1 97 0.7 33.3
15:05 1020 30.12 849 25.07 1 33.7 97 0.6 33
15:10 1020 30.12 849 25.07 0.8 33.5 98 0.5 32.9
15:15 1020 30.12 849 25.07 0.8 33.5 98 0.6 33
15:20 1020 30.12 849 25.07 0.9 33.5 97 0.5 32.9
15:25 1020 30.12 849 25.07 0.8 33.5 98 0.5 32.8
15:30 1020 30.12 849 25.07 0.8 33.5 98 0.6 33
15:35 1020 30.12 849 25.07 0.9 33.6 98 0.6 33.1
15:40 1020 30.12 849 25.07 0.8 33.4 98 0.5 32.9
15:45 1020 30.12 849 25.07 0.7 33.3 98 0.5 32.8
15:50 1020 30.12 849 25.07 0.8 33.5 98 0.5 33
15:55 1020 30.12 849 25.07 1 33.8 98 0.7 33.3
16:00 1020 30.12 849 25.07 1 33.8 97 0.6 33.1
16:05 1020 30.12 849 25.07 0.7 33.3 98 0.4 32.7
16:10 1020 30.12 849 25.07 0.5 32.8 98 0.2 32.4
16:15 1020 30.12 849 25.07 0.4 32.8 99 0.3 32.5
16:20 1020 30.12 849 25.07 0.6 33.1 99 0.4 32.7
16:25 1020 30.12 849 25.07 0.6 33 99 0.3 32.6
16:30 1020 30.12 849 25.07 0.5 32.9 99 0.3 32.6
16:35 1020 30.12 849 25.07 0.5 33 99 0.4 32.7
16:40 1020 30.12 849 25.07 0.5 32.9 99 0.3 32.6
16:45 1020 30.12 850 25.1 0.6 33 99 0.4 32.7
16:50 1020 30.12 850 25.1 0.6 33.1 99 0.4 32.8
16:55 1021 30.15 850 25.1 0.7 33.3 99 0.5 33
17:00 1021 30.15 850 25.1 0.8 33.5 98 0.5 33
17:05 1021 30.15 850 25.1 0.7 33.3 98 0.5 32.9
17:10 1021 30.15 850 25.1 0.8 33.5 98 0.6 33
17:15 1021 30.15 850 25.1 0.9 33.7 98 0.7 33.2
17:20 1021 30.15 850 25.1 1 33.8 98 0.7 33.3
17:25 1021 30.15 850 25.1 1.1 33.9 97 0.7 33.2
17:30 1021 30.15 850 25.1 1 33.8 98 0.7 33.3
17:35 1021 30.15 850 25.1 1.1 34 98 0.8 33.4
17:40 1021 30.15 850 25.1 1.2 34.1 97 0.8 33.5
17:45 1021 30.15 850 25.1 1.2 34.2 98 0.9 33.6
17:50 1021 30.15 850 25.1 1.2 34.2 97 0.8 33.5
17:55 1021 30.15 850 25.1 1.1 34 98 0.8 33.4
18:00 1021 30.15 851 25.13 1.2 34.1 98 0.9 33.7
18:05 1021 30.15 851 25.13 1.2 34.2 98 0.9 33.7
18:10 1021 30.15 851 25.13 1.2 34.1 97 0.8 33.4
18:15 1022 30.18 851 25.13 1.1 34 98 0.8 33.4
18:20 1022 30.18 851 25.13 1.2 34.1 98 0.9 33.6
18:25 1022 30.18 851 25.13 1.3 34.3 98 1 33.8
18:30 1022 30.18 851 25.13 1.4 34.5 97 1 33.7
18:35 1022 30.18 851 25.13 1.3 34.4 97 0.9 33.6
18:40 1022 30.18 851 25.13 1.4 34.5 96 0.9 33.6
18:45 1022 30.18 851 25.13 1.3 34.4 96 0.8 33.4
18:50 1022 30.18 851 25.13 1.2 34.2 96 0.7 33.3
18:55 1022 30.18 852 25.16 1.1 34 96 0.6 33.1
19:00 1022 30.18 852 25.16 1.2 34.1 96 0.7 33.2
19:05 1022 30.18 852 25.16 1.2 34.2 97 0.7 33.3
19:10 1023 30.21 852 25.16 1.2 34.2 96 0.6 33.1
19:15 1023 30.21 852 25.16 1.2 34.2 96 0.7 33.2
19:20 1023 30.21 852 25.16 1.2 34.1 96 0.6 33
19:25 1023 30.21 852 25.16 1.2 34.1 96 0.5 33
19:30 1023 30.21 852 25.16 1.2 34.1 96 0.5 33
19:35 1023 30.21 852 25.16 1.1 33.9 95 0.4 32.7
19:40 1023 30.21 852 25.16 1 33.8 95 0.3 32.6
19:45 1023 30.21 852 25.16 0.9 33.7 96 0.3 32.6
19:50 1023 30.21 852 25.16 0.9 33.6 96 0.3 32.6
19:55 1023 30.21 852 25.16 0.8 33.4 96 0.3 32.5
20:00 1023 30.21 852 25.16 0.8 33.4 96 0.2 32.4
20:05 1023 30.21 852 25.16 0.8 33.4 97 0.3 32.5
20:10 1023 30.21 852 25.16 0.7 33.3 97 0.3 32.5
20:15 1023 30.21 853 25.19 0.7 33.3 97 0.3 32.6
20:20 1023 30.21 853 25.19 0.8 33.4 97 0.3 32.6
20:25 1023 30.21 853 25.19 0.7 33.3 97 0.3 32.5
20:30 1024 30.24 853 25.19 0.7 33.3 97 0.3 32.5
20:35 1024 30.24 853 25.19 0.7 33.2 97 0.2 32.4
20:40 1024 30.24 853 25.19 0.7 33.2 97 0.3 32.5
20:45 1024 30.24 853 25.19 0.7 33.3 97 0.2 32.4
20:50 1024 30.24 853 25.19 0.7 33.3 97 0.3 32.5
20:55 1024 30.24 853 25.19 0.7 33.2 97 0.3 32.5
21:00 1024 30.24 853 25.19 0.6 33.2 97 0.2 32.4
21:05 1024 30.24 853 25.19 0.6 33.1 97 0.2 32.4
21:10 1024 30.24 853 25.19 0.6 33 98 0.2 32.4
21:15 1024 30.24 853 25.19 0.7 33.2 98 0.3 32.6
21:20 1024 30.24 854 25.22 0.7 33.2 97 0.3 32.5
21:25 1024 30.24 854 25.22 0.7 33.2 97 0.3 32.5
21:30 1025 30.27 854 25.22 0.6 33 97 0.2 32.3
21:35 1025 30.27 854 25.22 0.6 33 98 0.3 32.5
21:40 1025 30.27 854 25.22 0.6 33.1 98 0.3 32.5
21:45 1025 30.27 854 25.22 0.6 33 98 0.2 32.4
21:50 1025 30.27 854 25.22 0.5 32.9 98 0.2 32.4
21:55 1025 30.27 854 25.22 0.5 32.8 98 0.1 32.3
22:00 1025 30.27 854 25.22 0.4 32.8 98 0.1 32.2
22:05 1025 30.27 854 25.22 0.4 32.8 98 0.1 32.2
22:10 1025 30.27 854 25.22 0.4 32.6 98 0.1 32.2
22:15 1025 30.27 854 25.22 0.2 32.4 99 0 32.1
22:20 1025 30.27 854 25.22 0.2 32.4 99 0.1 32.2
22:25 1025 30.27 854 25.22 0.3 32.6 99 0.2 32.3
22:30 1025 30.27 854 25.22 0.4 32.7 98 0.1 32.2
22:35 1025 30.27 854 25.22 0.4 32.7 98 0.2 32.3
22:40 1025 30.27 854 25.22 0.4 32.7 99 0.2 32.3
22:45 1025 30.27 854 25.22 0.5 32.9 99 0.3 32.5
22:50 1025 30.27 854 25.22 0.5 32.9 98 0.3 32.5
22:55 1025 30.27 854 25.22 0.5 33 98 0.3 32.5
23:00 1025 30.27 854 25.22 0.5 32.9 98 0.2 32.4
23:05 1025 30.27 854 25.22 0.4 32.7 98 0.1 32.2
23:10 1025 30.27 854 25.22 0.3 32.6 98 0.1 32.1
23:15 1025 30.27 854 25.22 0.4 32.7 98 0.1 32.2
23:20 1025 30.27 854 25.22 0.4 32.7 98 0.1 32.2
23:25 1025 30.27 854 25.22 0.3 32.6 98 0.1 32.1
23:30 1025 30.27 854 25.22 0.3 32.5 98 0 32
23:35 1025 30.27 854 25.22 0.3 32.5 98 0 32.1
23:40 1025 30.27 854 25.22 0.3 32.6 98 0.1 32.2
23:45 1025 30.27 854 25.22 0.3 32.6 98 0.1 32.2
23:50 1025 30.27 854 25.22 0.4 32.7 98 0.1 32.2
23:55 1025 30.27 854 25.22 0.3 32.6 98 0.1 32.1
24:00 1025 30.27 854 25.22 0.3 32.5 98 -0 32